sensor_id;sensor_type;location;lat;lon;timestamp;temperature;humidity
22469;DHT22;11401;50.792;4.352;2024-02-26T00:01:15;14.00;62.30
22469;DHT22;11401;50.792;4.352;2024-02-26T00:03:42;14.00;61.80
22469;DHT22;11401;50.792;4.352;2024-02-26T00:06:12;14.10;62.00
22469;DHT22;11401;50.792;4.352;2024-02-26T00:08:39;14.00;61.70
22469;DHT22;11401;50.792;4.352;2024-02-26T00:11:06;14.00;62.10
22469;DHT22;11401;50.792;4.352;2024-02-26T00:13:33;14.00;62.10
22469;DHT22;11401;50.792;4.352;2024-02-26T00:16:00;14.00;62.40
22469;DHT22;11401;50.792;4.352;2024-02-26T00:18:27;13.90;62.30
22469;DHT22;11401;50.792;4.352;2024-02-26T00:20:54;13.90;62.70
22469;DHT22;11401;50.792;4.352;2024-02-26T00:23:21;13.90;62.90
22469;DHT22;11401;50.792;4.352;2024-02-26T00:25:49;13.90;62.70
22469;DHT22;11401;50.792;4.352;2024-02-26T00:28:16;13.90;62.70
22469;DHT22;11401;50.792;4.352;2024-02-26T00:30:43;13.90;62.90
22469;DHT22;11401;50.792;4.352;2024-02-26T00:33:10;14.00;62.60
22469;DHT22;11401;50.792;4.352;2024-02-26T00:35:38;13.90;62.50
22469;DHT22;11401;50.792;4.352;2024-02-26T00:38:08;13.90;62.80
22469;DHT22;11401;50.792;4.352;2024-02-26T00:40:35;13.80;62.70
22469;DHT22;11401;50.792;4.352;2024-02-26T00:43:02;13.70;62.90
22469;DHT22;11401;50.792;4.352;2024-02-26T00:45:29;13.70;63.40
22469;DHT22;11401;50.792;4.352;2024-02-26T00:47:56;13.70;63.70
22469;DHT22;11401;50.792;4.352;2024-02-26T00:50:23;13.70;63.20
22469;DHT22;11401;50.792;4.352;2024-02-26T00:52:50;13.70;63.40
22469;DHT22;11401;50.792;4.352;2024-02-26T00:55:17;13.70;63.40
22469;DHT22;11401;50.792;4.352;2024-02-26T00:57:44;13.70;63.80
22469;DHT22;11401;50.792;4.352;2024-02-26T01:00:12;13.70;63.80
22469;DHT22;11401;50.792;4.352;2024-02-26T01:02:39;13.70;63.40
22469;DHT22;11401;50.792;4.352;2024-02-26T01:05:06;13.60;63.20
22469;DHT22;11401;50.792;4.352;2024-02-26T01:07:33;13.50;64.10
22469;DHT22;11401;50.792;4.352;2024-02-26T01:10:03;13.50;64.30
22469;DHT22;11401;50.792;4.352;2024-02-26T01:12:30;13.40;64.50
22469;DHT22;11401;50.792;4.352;2024-02-26T01:14:58;13.40;65.00
22469;DHT22;11401;50.792;4.352;2024-02-26T01:17:25;13.30;64.60
22469;DHT22;11401;50.792;4.352;2024-02-26T01:19:53;13.40;65.30
22469;DHT22;11401;50.792;4.352;2024-02-26T01:22:20;13.40;64.70
22469;DHT22;11401;50.792;4.352;2024-02-26T01:24:47;13.40;64.70
22469;DHT22;11401;50.792;4.352;2024-02-26T01:27:15;13.50;64.50
22469;DHT22;11401;50.792;4.352;2024-02-26T01:29:42;13.50;64.60
22469;DHT22;11401;50.792;4.352;2024-02-26T01:32:09;13.50;64.60
22469;DHT22;11401;50.792;4.352;2024-02-26T01:34:37;13.50;64.40
22469;DHT22;11401;50.792;4.352;2024-02-26T01:37:04;13.50;65.00
22469;DHT22;11401;50.792;4.352;2024-02-26T01:39:31;13.40;64.70
22469;DHT22;11401;50.792;4.352;2024-02-26T01:41:58;13.40;64.90
22469;DHT22;11401;50.792;4.352;2024-02-26T01:44:26;13.50;65.10
22469;DHT22;11401;50.792;4.352;2024-02-26T01:46:54;13.50;64.50
22469;DHT22;11401;50.792;4.352;2024-02-26T01:49:21;13.40;64.60
22469;DHT22;11401;50.792;4.352;2024-02-26T01:51:48;13.30;65.00
22469;DHT22;11401;50.792;4.352;2024-02-26T01:54:16;13.30;65.50
22469;DHT22;11401;50.792;4.352;2024-02-26T01:56:43;13.40;64.80
22469;DHT22;11401;50.792;4.352;2024-02-26T01:59:11;13.40;64.80
22469;DHT22;11401;50.792;4.352;2024-02-26T02:01:40;13.30;64.80
22469;DHT22;11401;50.792;4.352;2024-02-26T02:04:09;13.30;65.60
22469;DHT22;11401;50.792;4.352;2024-02-26T02:06:36;13.30;65.30
22469;DHT22;11401;50.792;4.352;2024-02-26T02:09:04;13.40;65.30
22469;DHT22;11401;50.792;4.352;2024-02-26T02:11:34;13.40;64.90
22469;DHT22;11401;50.792;4.352;2024-02-26T02:14:01;13.30;65.50
22469;DHT22;11401;50.792;4.352;2024-02-26T02:16:28;13.20;65.00
22469;DHT22;11401;50.792;4.352;2024-02-26T02:18:55;13.30;65.30
22469;DHT22;11401;50.792;4.352;2024-02-26T02:21:22;13.30;65.40
22469;DHT22;11401;50.792;4.352;2024-02-26T02:23:50;13.50;65.50
22469;DHT22;11401;50.792;4.352;2024-02-26T02:26:17;13.30;66.00
22469;DHT22;11401;50.792;4.352;2024-02-26T02:28:46;13.30;65.20
22469;DHT22;11401;50.792;4.352;2024-02-26T02:31:15;13.30;66.00
22469;DHT22;11401;50.792;4.352;2024-02-26T02:33:42;13.30;65.50
22469;DHT22;11401;50.792;4.352;2024-02-26T02:36:10;13.30;66.20
22469;DHT22;11401;50.792;4.352;2024-02-26T02:38:38;13.20;66.00
22469;DHT22;11401;50.792;4.352;2024-02-26T02:41:06;13.10;65.90
22469;DHT22;11401;50.792;4.352;2024-02-26T02:43:33;13.00;66.20
22469;DHT22;11401;50.792;4.352;2024-02-26T02:46:01;13.00;66.80
22469;DHT22;11401;50.792;4.352;2024-02-26T02:48:28;13.00;66.60
22469;DHT22;11401;50.792;4.352;2024-02-26T02:50:55;13.00;66.00
22469;DHT22;11401;50.792;4.352;2024-02-26T02:53:22;13.00;66.30
22469;DHT22;11401;50.792;4.352;2024-02-26T02:55:49;13.00;67.10
22469;DHT22;11401;50.792;4.352;2024-02-26T02:58:16;13.00;66.50
22469;DHT22;11401;50.792;4.352;2024-02-26T03:00:43;12.90;67.10
22469;DHT22;11401;50.792;4.352;2024-02-26T03:03:10;12.80;66.50
22469;DHT22;11401;50.792;4.352;2024-02-26T03:05:37;12.90;67.00
22469;DHT22;11401;50.792;4.352;2024-02-26T03:08:04;12.90;66.90
22469;DHT22;11401;50.792;4.352;2024-02-26T03:10:31;12.90;66.60
22469;DHT22;11401;50.792;4.352;2024-02-26T03:12:58;12.80;66.80
22469;DHT22;11401;50.792;4.352;2024-02-26T03:15:26;12.90;67.00
22469;DHT22;11401;50.792;4.352;2024-02-26T03:17:53;12.90;67.30
22469;DHT22;11401;50.792;4.352;2024-02-26T03:20:20;12.90;67.70
22469;DHT22;11401;50.792;4.352;2024-02-26T03:22:47;12.90;66.60
22469;DHT22;11401;50.792;4.352;2024-02-26T03:25:14;13.00;67.50
22469;DHT22;11401;50.792;4.352;2024-02-26T03:27:41;13.00;67.00
22469;DHT22;11401;50.792;4.352;2024-02-26T03:30:09;12.90;66.70
22469;DHT22;11401;50.792;4.352;2024-02-26T03:32:36;12.90;66.60
22469;DHT22;11401;50.792;4.352;2024-02-26T03:35:04;12.90;67.10
22469;DHT22;11401;50.792;4.352;2024-02-26T03:37:31;12.80;67.50
22469;DHT22;11401;50.792;4.352;2024-02-26T03:39:58;12.80;68.00
22469;DHT22;11401;50.792;4.352;2024-02-26T03:42:25;12.80;68.00
22469;DHT22;11401;50.792;4.352;2024-02-26T03:44:53;12.80;67.50
22469;DHT22;11401;50.792;4.352;2024-02-26T03:47:20;12.80;67.60
22469;DHT22;11401;50.792;4.352;2024-02-26T03:49:47;12.90;68.30
22469;DHT22;11401;50.792;4.352;2024-02-26T03:52:14;13.00;67.60
22469;DHT22;11401;50.792;4.352;2024-02-26T03:54:41;12.80;67.00
22469;DHT22;11401;50.792;4.352;2024-02-26T03:57:08;12.90;67.10
22469;DHT22;11401;50.792;4.352;2024-02-26T03:59:35;12.80;67.60
22469;DHT22;11401;50.792;4.352;2024-02-26T04:02:03;12.80;67.70
22469;DHT22;11401;50.792;4.352;2024-02-26T04:04:34;12.90;67.60
22469;DHT22;11401;50.792;4.352;2024-02-26T04:07:01;12.80;68.20
22469;DHT22;11401;50.792;4.352;2024-02-26T04:09:31;12.80;67.60
22469;DHT22;11401;50.792;4.352;2024-02-26T04:11:58;12.80;67.90
22469;DHT22;11401;50.792;4.352;2024-02-26T04:14:25;12.80;67.50
22469;DHT22;11401;50.792;4.352;2024-02-26T04:16:52;12.90;68.00
22469;DHT22;11401;50.792;4.352;2024-02-26T04:19:21;12.90;67.70
22469;DHT22;11401;50.792;4.352;2024-02-26T04:21:48;12.90;67.10
22469;DHT22;11401;50.792;4.352;2024-02-26T04:24:15;12.80;67.60
22469;DHT22;11401;50.792;4.352;2024-02-26T04:26:43;12.90;67.80
22469;DHT22;11401;50.792;4.352;2024-02-26T04:29:10;12.90;66.60
22469;DHT22;11401;50.792;4.352;2024-02-26T04:31:38;12.80;67.50
22469;DHT22;11401;50.792;4.352;2024-02-26T04:34:06;12.70;67.40
22469;DHT22;11401;50.792;4.352;2024-02-26T04:36:33;12.70;68.00
22469;DHT22;11401;50.792;4.352;2024-02-26T04:39:00;12.70;68.10
22469;DHT22;11401;50.792;4.352;2024-02-26T04:41:27;12.70;67.80
22469;DHT22;11401;50.792;4.352;2024-02-26T04:43:56;12.70;68.40
22469;DHT22;11401;50.792;4.352;2024-02-26T04:46:23;12.80;68.40
22469;DHT22;11401;50.792;4.352;2024-02-26T04:48:50;12.80;67.60
22469;DHT22;11401;50.792;4.352;2024-02-26T04:51:20;12.70;67.20
22469;DHT22;11401;50.792;4.352;2024-02-26T04:53:47;12.80;67.60
22469;DHT22;11401;50.792;4.352;2024-02-26T04:56:14;12.80;67.60
22469;DHT22;11401;50.792;4.352;2024-02-26T04:58:41;12.80;67.50
22469;DHT22;11401;50.792;4.352;2024-02-26T05:01:08;12.80;67.00
22469;DHT22;11401;50.792;4.352;2024-02-26T05:03:37;12.70;68.00
22469;DHT22;11401;50.792;4.352;2024-02-26T05:06:05;12.70;68.40
22469;DHT22;11401;50.792;4.352;2024-02-26T05:08:32;12.70;67.90
22469;DHT22;11401;50.792;4.352;2024-02-26T05:11:00;12.70;68.40
22469;DHT22;11401;50.792;4.352;2024-02-26T05:13:27;12.70;67.60
22469;DHT22;11401;50.792;4.352;2024-02-26T05:15:54;12.60;68.10
22469;DHT22;11401;50.792;4.352;2024-02-26T05:18:25;12.70;67.60
22469;DHT22;11401;50.792;4.352;2024-02-26T05:20:52;12.50;67.80
22469;DHT22;11401;50.792;4.352;2024-02-26T05:23:19;12.50;69.20
22469;DHT22;11401;50.792;4.352;2024-02-26T05:25:49;12.50;68.40
22469;DHT22;11401;50.792;4.352;2024-02-26T05:28:16;12.60;68.60
22469;DHT22;11401;50.792;4.352;2024-02-26T05:30:44;12.70;68.40
22469;DHT22;11401;50.792;4.352;2024-02-26T05:33:10;12.70;67.50
22469;DHT22;11401;50.792;4.352;2024-02-26T05:35:41;12.80;68.50
22469;DHT22;11401;50.792;4.352;2024-02-26T05:38:08;12.90;68.10
22469;DHT22;11401;50.792;4.352;2024-02-26T05:40:35;13.00;66.50
22469;DHT22;11401;50.792;4.352;2024-02-26T05:43:02;13.00;66.60
22469;DHT22;11401;50.792;4.352;2024-02-26T05:45:29;13.10;66.40
22469;DHT22;11401;50.792;4.352;2024-02-26T05:47:56;13.10;66.10
22469;DHT22;11401;50.792;4.352;2024-02-26T05:50:24;13.10;66.60
22469;DHT22;11401;50.792;4.352;2024-02-26T05:52:51;13.00;66.70
22469;DHT22;11401;50.792;4.352;2024-02-26T05:55:18;12.90;67.70
22469;DHT22;11401;50.792;4.352;2024-02-26T05:57:44;13.00;67.40
22469;DHT22;11401;50.792;4.352;2024-02-26T06:00:12;13.00;67.20
22469;DHT22;11401;50.792;4.352;2024-02-26T06:02:41;13.10;67.80
22469;DHT22;11401;50.792;4.352;2024-02-26T06:05:08;13.10;66.70
22469;DHT22;11401;50.792;4.352;2024-02-26T06:07:36;13.20;66.50
22469;DHT22;11401;50.792;4.352;2024-02-26T06:10:03;13.20;66.60
22469;DHT22;11401;50.792;4.352;2024-02-26T06:12:31;13.10;66.60
22469;DHT22;11401;50.792;4.352;2024-02-26T06:14:59;13.00;66.10
22469;DHT22;11401;50.792;4.352;2024-02-26T06:17:28;13.00;66.40
22469;DHT22;11401;50.792;4.352;2024-02-26T06:19:55;12.90;66.90
22469;DHT22;11401;50.792;4.352;2024-02-26T06:22:23;13.00;66.70
22469;DHT22;11401;50.792;4.352;2024-02-26T06:24:50;12.90;67.00
22469;DHT22;11401;50.792;4.352;2024-02-26T06:27:17;12.90;67.10
22469;DHT22;11401;50.792;4.352;2024-02-26T06:29:45;12.90;67.30
22469;DHT22;11401;50.792;4.352;2024-02-26T06:32:12;12.80;66.80
22469;DHT22;11401;50.792;4.352;2024-02-26T06:34:39;12.60;67.50
22469;DHT22;11401;50.792;4.352;2024-02-26T06:37:08;12.50;68.30
22469;DHT22;11401;50.792;4.352;2024-02-26T06:39:35;12.50;68.20
22469;DHT22;11401;50.792;4.352;2024-02-26T06:42:02;12.50;68.30
22469;DHT22;11401;50.792;4.352;2024-02-26T06:44:29;12.50;68.30
22469;DHT22;11401;50.792;4.352;2024-02-26T06:46:59;12.50;68.40
22469;DHT22;11401;50.792;4.352;2024-02-26T06:49:27;12.50;68.80
22469;DHT22;11401;50.792;4.352;2024-02-26T06:51:56;12.50;68.70
22469;DHT22;11401;50.792;4.352;2024-02-26T06:54:23;12.40;68.90
22469;DHT22;11401;50.792;4.352;2024-02-26T06:56:50;12.40;68.70
22469;DHT22;11401;50.792;4.352;2024-02-26T06:59:17;12.40;68.80
22469;DHT22;11401;50.792;4.352;2024-02-26T07:01:45;12.40;69.00
22469;DHT22;11401;50.792;4.352;2024-02-26T07:04:12;12.40;68.40
22469;DHT22;11401;50.792;4.352;2024-02-26T07:06:39;12.40;68.50
22469;DHT22;11401;50.792;4.352;2024-02-26T07:09:08;12.50;68.70
22469;DHT22;11401;50.792;4.352;2024-02-26T07:11:35;12.40;68.70
22469;DHT22;11401;50.792;4.352;2024-02-26T07:14:03;12.40;68.50
22469;DHT22;11401;50.792;4.352;2024-02-26T07:16:30;12.40;68.20
22469;DHT22;11401;50.792;4.352;2024-02-26T07:18:58;12.50;68.30
22469;DHT22;11401;50.792;4.352;2024-02-26T07:21:25;12.50;68.00
22469;DHT22;11401;50.792;4.352;2024-02-26T07:23:52;12.40;68.70
22469;DHT22;11401;50.792;4.352;2024-02-26T07:26:19;12.40;68.60
22469;DHT22;11401;50.792;4.352;2024-02-26T07:28:46;12.40;68.50
22469;DHT22;11401;50.792;4.352;2024-02-26T07:31:13;12.30;68.50
22469;DHT22;11401;50.792;4.352;2024-02-26T07:33:40;12.30;68.90
22469;DHT22;11401;50.792;4.352;2024-02-26T07:36:07;12.30;68.70
22469;DHT22;11401;50.792;4.352;2024-02-26T07:38:34;12.40;69.30
22469;DHT22;11401;50.792;4.352;2024-02-26T07:41:09;12.50;67.90
22469;DHT22;11401;50.792;4.352;2024-02-26T07:43:37;12.50;68.90
22469;DHT22;11401;50.792;4.352;2024-02-26T07:46:04;12.40;68.10
22469;DHT22;11401;50.792;4.352;2024-02-26T07:48:31;12.40;68.40
22469;DHT22;11401;50.792;4.352;2024-02-26T07:50:58;12.30;68.70
22469;DHT22;11401;50.792;4.352;2024-02-26T07:53:27;12.30;68.70
22469;DHT22;11401;50.792;4.352;2024-02-26T07:55:54;12.20;68.90
22469;DHT22;11401;50.792;4.352;2024-02-26T07:58:21;12.30;69.20
22469;DHT22;11401;50.792;4.352;2024-02-26T08:00:49;12.30;68.80
22469;DHT22;11401;50.792;4.352;2024-02-26T08:03:16;12.30;69.40
22469;DHT22;11401;50.792;4.352;2024-02-26T08:05:44;12.30;69.00
22469;DHT22;11401;50.792;4.352;2024-02-26T08:08:11;12.30;69.00
22469;DHT22;11401;50.792;4.352;2024-02-26T08:10:39;12.30;68.70
22469;DHT22;11401;50.792;4.352;2024-02-26T08:13:06;12.20;69.50
22469;DHT22;11401;50.792;4.352;2024-02-26T08:15:35;12.30;69.50
22469;DHT22;11401;50.792;4.352;2024-02-26T08:18:02;12.20;69.00
22469;DHT22;11401;50.792;4.352;2024-02-26T08:20:31;12.20;68.90
22469;DHT22;11401;50.792;4.352;2024-02-26T08:22:58;12.50;69.10
22469;DHT22;11401;50.792;4.352;2024-02-26T08:25:25;12.50;68.20
22469;DHT22;11401;50.792;4.352;2024-02-26T08:27:53;12.50;68.70
22469;DHT22;11401;50.792;4.352;2024-02-26T08:30:20;12.50;68.30
22469;DHT22;11401;50.792;4.352;2024-02-26T08:32:49;12.50;68.70
22469;DHT22;11401;50.792;4.352;2024-02-26T08:35:18;12.50;68.20
22469;DHT22;11401;50.792;4.352;2024-02-26T08:37:47;12.40;68.10
22469;DHT22;11401;50.792;4.352;2024-02-26T08:40:14;12.30;68.50
22469;DHT22;11401;50.792;4.352;2024-02-26T08:42:41;12.20;68.80
22469;DHT22;11401;50.792;4.352;2024-02-26T08:45:09;12.30;69.20
22469;DHT22;11401;50.792;4.352;2024-02-26T08:47:36;12.30;69.30
22469;DHT22;11401;50.792;4.352;2024-02-26T08:50:05;12.40;68.40
22469;DHT22;11401;50.792;4.352;2024-02-26T08:52:32;12.30;67.90
22469;DHT22;11401;50.792;4.352;2024-02-26T08:55:00;12.30;68.90
22469;DHT22;11401;50.792;4.352;2024-02-26T08:57:27;12.30;68.40
22469;DHT22;11401;50.792;4.352;2024-02-26T08:59:55;12.40;68.90
22469;DHT22;11401;50.792;4.352;2024-02-26T09:02:22;12.40;68.60
22469;DHT22;11401;50.792;4.352;2024-02-26T09:04:49;12.40;69.10
22469;DHT22;11401;50.792;4.352;2024-02-26T09:07:19;12.40;68.50
22469;DHT22;11401;50.792;4.352;2024-02-26T09:09:46;12.40;68.10
22469;DHT22;11401;50.792;4.352;2024-02-26T09:12:13;12.40;68.70
22469;DHT22;11401;50.792;4.352;2024-02-26T09:14:40;12.40;68.80
22469;DHT22;11401;50.792;4.352;2024-02-26T09:17:08;12.30;68.40
22469;DHT22;11401;50.792;4.352;2024-02-26T09:19:39;12.30;68.80
22469;DHT22;11401;50.792;4.352;2024-02-26T09:22:09;12.40;68.80
22469;DHT22;11401;50.792;4.352;2024-02-26T09:24:36;12.30;68.70
22469;DHT22;11401;50.792;4.352;2024-02-26T09:27:03;12.40;68.70
22469;DHT22;11401;50.792;4.352;2024-02-26T09:29:31;12.30;68.50
22469;DHT22;11401;50.792;4.352;2024-02-26T09:31:58;12.40;69.20
22469;DHT22;11401;50.792;4.352;2024-02-26T09:34:25;12.50;68.60
22469;DHT22;11401;50.792;4.352;2024-02-26T09:36:52;12.50;67.80
22469;DHT22;11401;50.792;4.352;2024-02-26T09:39:26;12.50;67.40
22469;DHT22;11401;50.792;4.352;2024-02-26T09:41:56;12.50;67.10
22469;DHT22;11401;50.792;4.352;2024-02-26T09:44:24;12.50;68.40
22469;DHT22;11401;50.792;4.352;2024-02-26T09:46:52;12.60;68.10
22469;DHT22;11401;50.792;4.352;2024-02-26T09:49:20;12.50;67.60
22469;DHT22;11401;50.792;4.352;2024-02-26T09:51:49;12.50;68.10
22469;DHT22;11401;50.792;4.352;2024-02-26T09:54:17;12.50;67.90
22469;DHT22;11401;50.792;4.352;2024-02-26T09:56:47;12.60;68.40
22469;DHT22;11401;50.792;4.352;2024-02-26T09:59:29;12.60;67.40
22469;DHT22;11401;50.792;4.352;2024-02-26T10:02:09;12.60;67.50
22469;DHT22;11401;50.792;4.352;2024-02-26T10:04:42;12.60;67.50
22469;DHT22;11401;50.792;4.352;2024-02-26T10:07:15;12.60;68.40
22469;DHT22;11401;50.792;4.352;2024-02-26T10:09:42;12.70;67.90
22469;DHT22;11401;50.792;4.352;2024-02-26T10:12:10;12.70;67.40
22469;DHT22;11401;50.792;4.352;2024-02-26T10:14:42;12.70;67.60
22469;DHT22;11401;50.792;4.352;2024-02-26T10:17:10;12.70;67.50
22469;DHT22;11401;50.792;4.352;2024-02-26T10:19:37;12.70;67.80
22469;DHT22;11401;50.792;4.352;2024-02-26T10:22:06;12.60;66.70
22469;DHT22;11401;50.792;4.352;2024-02-26T10:24:33;12.60;67.50
22469;DHT22;11401;50.792;4.352;2024-02-26T10:27:02;12.50;67.10
22469;DHT22;11401;50.792;4.352;2024-02-26T10:29:30;12.50;67.60
22469;DHT22;11401;50.792;4.352;2024-02-26T10:31:57;12.50;67.70
22469;DHT22;11401;50.792;4.352;2024-02-26T10:34:24;12.50;68.70
22469;DHT22;11401;50.792;4.352;2024-02-26T10:36:53;12.40;67.60
22469;DHT22;11401;50.792;4.352;2024-02-26T10:39:21;12.60;68.60
22469;DHT22;11401;50.792;4.352;2024-02-26T10:41:50;12.60;67.20
22469;DHT22;11401;50.792;4.352;2024-02-26T10:44:17;12.60;67.40
22469;DHT22;11401;50.792;4.352;2024-02-26T10:46:48;12.50;67.10
22469;DHT22;11401;50.792;4.352;2024-02-26T10:49:18;12.50;67.40
22469;DHT22;11401;50.792;4.352;2024-02-26T10:51:55;12.60;67.60
22469;DHT22;11401;50.792;4.352;2024-02-26T10:54:26;12.60;67.30
22469;DHT22;11401;50.792;4.352;2024-02-26T10:56:56;12.50;67.20
22469;DHT22;11401;50.792;4.352;2024-02-26T10:59:24;12.50;67.40
22469;DHT22;11401;50.792;4.352;2024-02-26T11:01:52;12.50;68.40
22469;DHT22;11401;50.792;4.352;2024-02-26T11:04:20;12.50;67.20
22469;DHT22;11401;50.792;4.352;2024-02-26T11:06:49;12.50;66.80
22469;DHT22;11401;50.792;4.352;2024-02-26T11:09:17;12.50;67.20
22469;DHT22;11401;50.792;4.352;2024-02-26T11:11:48;12.40;67.30
22469;DHT22;11401;50.792;4.352;2024-02-26T11:14:17;12.50;67.20
22469;DHT22;11401;50.792;4.352;2024-02-26T11:16:44;12.50;67.40
22469;DHT22;11401;50.792;4.352;2024-02-26T11:19:11;12.60;67.20
22469;DHT22;11401;50.792;4.352;2024-02-26T11:21:40;12.60;66.80
22469;DHT22;11401;50.792;4.352;2024-02-26T11:24:12;12.60;67.00
22469;DHT22;11401;50.792;4.352;2024-02-26T11:27:01;12.40;66.50
22469;DHT22;11401;50.792;4.352;2024-02-26T11:29:37;12.40;67.30
22469;DHT22;11401;50.792;4.352;2024-02-26T11:32:06;12.30;66.80
22469;DHT22;11401;50.792;4.352;2024-02-26T11:34:34;12.30;67.00
22469;DHT22;11401;50.792;4.352;2024-02-26T11:37:13;12.20;67.10
22469;DHT22;11401;50.792;4.352;2024-02-26T11:39:41;12.30;67.90
22469;DHT22;11401;50.792;4.352;2024-02-26T11:42:09;12.40;67.80
22469;DHT22;11401;50.792;4.352;2024-02-26T11:44:36;12.40;67.60
22469;DHT22;11401;50.792;4.352;2024-02-26T11:49:38;12.50;66.40
22469;DHT22;11401;50.792;4.352;2024-02-26T11:52:08;12.30;66.20
22469;DHT22;11401;50.792;4.352;2024-02-26T11:57:30;12.40;67.50
22469;DHT22;11401;50.792;4.352;2024-02-26T12:00:15;12.50;67.50
22469;DHT22;11401;50.792;4.352;2024-02-26T12:02:51;12.50;66.10
22469;DHT22;11401;50.792;4.352;2024-02-26T12:05:25;12.50;67.30
22469;DHT22;11401;50.792;4.352;2024-02-26T12:08:03;12.50;66.60
22469;DHT22;11401;50.792;4.352;2024-02-26T12:10:37;12.50;67.00
22469;DHT22;11401;50.792;4.352;2024-02-26T12:13:10;12.50;67.30
22469;DHT22;11401;50.792;4.352;2024-02-26T12:15:55;12.50;67.20
22469;DHT22;11401;50.792;4.352;2024-02-26T12:18:24;12.40;66.80
22469;DHT22;11401;50.792;4.352;2024-02-26T12:21:10;12.60;67.90
22469;DHT22;11401;50.792;4.352;2024-02-26T12:23:39;12.50;65.00
22469;DHT22;11401;50.792;4.352;2024-02-26T12:26:06;12.50;66.30
22469;DHT22;11401;50.792;4.352;2024-02-26T12:28:36;12.50;66.40
22469;DHT22;11401;50.792;4.352;2024-02-26T12:31:04;12.50;66.80
22469;DHT22;11401;50.792;4.352;2024-02-26T12:33:31;12.50;67.10
22469;DHT22;11401;50.792;4.352;2024-02-26T12:35:59;12.60;65.60
22469;DHT22;11401;50.792;4.352;2024-02-26T12:38:27;12.60;65.50
22469;DHT22;11401;50.792;4.352;2024-02-26T12:40:54;12.60;65.50
22469;DHT22;11401;50.792;4.352;2024-02-26T12:43:21;12.60;66.00
22469;DHT22;11401;50.792;4.352;2024-02-26T12:45:48;12.60;66.90
22469;DHT22;11401;50.792;4.352;2024-02-26T12:48:15;12.60;66.40
22469;DHT22;11401;50.792;4.352;2024-02-26T12:50:46;12.60;65.80
22469;DHT22;11401;50.792;4.352;2024-02-26T12:53:17;12.60;66.40
22469;DHT22;11401;50.792;4.352;2024-02-26T12:55:44;12.70;65.50
22469;DHT22;11401;50.792;4.352;2024-02-26T12:58:12;12.60;64.50
22469;DHT22;11401;50.792;4.352;2024-02-26T13:00:40;12.60;64.60
22469;DHT22;11401;50.792;4.352;2024-02-26T13:03:08;12.70;65.40
22469;DHT22;11401;50.792;4.352;2024-02-26T13:05:36;12.80;64.90
22469;DHT22;11401;50.792;4.352;2024-02-26T13:08:04;12.90;64.60
22469;DHT22;11401;50.792;4.352;2024-02-26T13:10:35;12.90;65.00
22469;DHT22;11401;50.792;4.352;2024-02-26T13:13:03;12.80;64.70
22469;DHT22;11401;50.792;4.352;2024-02-26T13:15:31;12.80;66.10
22469;DHT22;11401;50.792;4.352;2024-02-26T13:18:09;12.70;65.40
22469;DHT22;11401;50.792;4.352;2024-02-26T13:20:37;12.80;64.70
22469;DHT22;11401;50.792;4.352;2024-02-26T13:23:09;12.80;65.60
22469;DHT22;11401;50.792;4.352;2024-02-26T13:25:38;12.90;68.20
22469;DHT22;11401;50.792;4.352;2024-02-26T13:28:16;13.20;63.90
22469;DHT22;11401;50.792;4.352;2024-02-26T13:30:57;13.10;64.10
22469;DHT22;11401;50.792;4.352;2024-02-26T13:33:25;12.90;63.90
22469;DHT22;11401;50.792;4.352;2024-02-26T13:35:55;12.90;65.00
22469;DHT22;11401;50.792;4.352;2024-02-26T13:38:23;12.90;65.40
22469;DHT22;11401;50.792;4.352;2024-02-26T13:40:50;12.80;65.20
22469;DHT22;11401;50.792;4.352;2024-02-26T13:43:18;12.80;64.20
22469;DHT22;11401;50.792;4.352;2024-02-26T13:45:46;12.80;64.90
22469;DHT22;11401;50.792;4.352;2024-02-26T13:48:14;12.80;64.40
22469;DHT22;11401;50.792;4.352;2024-02-26T13:50:42;12.70;64.60
22469;DHT22;11401;50.792;4.352;2024-02-26T13:53:16;12.60;65.20
22469;DHT22;11401;50.792;4.352;2024-02-26T13:55:43;12.60;66.20
22469;DHT22;11401;50.792;4.352;2024-02-26T13:58:12;12.60;65.70
22469;DHT22;11401;50.792;4.352;2024-02-26T14:00:40;12.60;65.40
22469;DHT22;11401;50.792;4.352;2024-02-26T14:03:09;12.70;65.70
22469;DHT22;11401;50.792;4.352;2024-02-26T14:05:36;12.70;66.40
22469;DHT22;11401;50.792;4.352;2024-02-26T14:08:04;12.60;65.50
22469;DHT22;11401;50.792;4.352;2024-02-26T14:10:31;12.60;66.20
22469;DHT22;11401;50.792;4.352;2024-02-26T14:12:59;12.60;66.60
22469;DHT22;11401;50.792;4.352;2024-02-26T14:15:27;12.60;65.70
22469;DHT22;11401;50.792;4.352;2024-02-26T14:17:56;12.60;65.90
22469;DHT22;11401;50.792;4.352;2024-02-26T14:20:24;12.60;65.70
22469;DHT22;11401;50.792;4.352;2024-02-26T14:22:52;12.60;65.90
22469;DHT22;11401;50.792;4.352;2024-02-26T14:25:21;12.70;66.20
22469;DHT22;11401;50.792;4.352;2024-02-26T14:27:48;12.70;65.40
22469;DHT22;11401;50.792;4.352;2024-02-26T14:30:15;12.70;65.70
22469;DHT22;11401;50.792;4.352;2024-02-26T14:32:43;12.70;66.10
22469;DHT22;11401;50.792;4.352;2024-02-26T14:35:11;12.60;66.00
22469;DHT22;11401;50.792;4.352;2024-02-26T14:37:44;12.60;66.10
22469;DHT22;11401;50.792;4.352;2024-02-26T14:40:16;12.50;66.10
22469;DHT22;11401;50.792;4.352;2024-02-26T14:42:43;12.50;67.60
22469;DHT22;11401;50.792;4.352;2024-02-26T14:45:11;12.70;66.50
22469;DHT22;11401;50.792;4.352;2024-02-26T14:47:39;12.70;65.20
22469;DHT22;11401;50.792;4.352;2024-02-26T14:50:07;12.70;65.40
22469;DHT22;11401;50.792;4.352;2024-02-26T14:52:34;12.70;66.20
22469;DHT22;11401;50.792;4.352;2024-02-26T14:55:01;12.70;66.60
22469;DHT22;11401;50.792;4.352;2024-02-26T14:57:28;12.80;65.40
22469;DHT22;11401;50.792;4.352;2024-02-26T14:59:57;12.70;66.00
22469;DHT22;11401;50.792;4.352;2024-02-26T15:02:24;12.70;65.70
22469;DHT22;11401;50.792;4.352;2024-02-26T15:04:52;12.60;67.00
22469;DHT22;11401;50.792;4.352;2024-02-26T15:07:19;12.60;66.30
22469;DHT22;11401;50.792;4.352;2024-02-26T15:09:47;12.60;66.10
22469;DHT22;11401;50.792;4.352;2024-02-26T15:12:14;12.60;66.30
22469;DHT22;11401;50.792;4.352;2024-02-26T15:14:44;12.60;66.80
22469;DHT22;11401;50.792;4.352;2024-02-26T15:17:12;12.70;66.40
22469;DHT22;11401;50.792;4.352;2024-02-26T15:19:40;12.70;65.80
22469;DHT22;11401;50.792;4.352;2024-02-26T15:22:07;12.70;66.00
22469;DHT22;11401;50.792;4.352;2024-02-26T15:24:34;12.60;65.60
22469;DHT22;11401;50.792;4.352;2024-02-26T15:27:01;12.60;65.20
22469;DHT22;11401;50.792;4.352;2024-02-26T15:29:30;12.60;65.50
22469;DHT22;11401;50.792;4.352;2024-02-26T15:31:57;12.60;65.60
22469;DHT22;11401;50.792;4.352;2024-02-26T15:34:24;12.50;66.50
22469;DHT22;11401;50.792;4.352;2024-02-26T15:36:51;12.60;66.60
22469;DHT22;11401;50.792;4.352;2024-02-26T15:39:19;12.70;65.50
22469;DHT22;11401;50.792;4.352;2024-02-26T15:41:48;12.70;65.40